sensor_id;sensor_type;location;lat;lon;timestamp;P1;durP1;ratioP1;P2;durP2;ratioP2
19509;SDS011;9896;42.486;26.506;2023-04-25T00:00:19;16.40;;;9.17;;
19509;SDS011;9896;42.486;26.506;2023-04-25T00:02:45;14.03;;;8.07;;
19509;SDS011;9896;42.486;26.506;2023-04-25T00:05:11;14.53;;;8.50;;
19509;SDS011;9896;42.486;26.506;2023-04-25T00:07:36;14.70;;;8.53;;
19509;SDS011;9896;42.486;26.506;2023-04-25T00:10:02;19.57;;;9.10;;
19509;SDS011;9896;42.486;26.506;2023-04-25T00:12:27;14.30;;;9.60;;
19509;SDS011;9896;42.486;26.506;2023-04-25T00:14:56;17.77;;;9.50;;
19509;SDS011;9896;42.486;26.506;2023-04-25T00:17:25;17.13;;;9.83;;
19509;SDS011;9896;42.486;26.506;2023-04-25T00:19:50;15.57;;;8.57;;
19509;SDS011;9896;42.486;26.506;2023-04-25T00:22:15;11.90;;;8.00;;
19509;SDS011;9896;42.486;26.506;2023-04-25T00:24:41;18.17;;;9.13;;
19509;SDS011;9896;42.486;26.506;2023-04-25T00:27:06;15.40;;;8.37;;
19509;SDS011;9896;42.486;26.506;2023-04-25T00:29:31;11.67;;;7.97;;
19509;SDS011;9896;42.486;26.506;2023-04-25T00:31:57;12.87;;;8.33;;
19509;SDS011;9896;42.486;26.506;2023-04-25T00:34:22;19.13;;;8.50;;
19509;SDS011;9896;42.486;26.506;2023-04-25T00:36:47;11.43;;;7.60;;
19509;SDS011;9896;42.486;26.506;2023-04-25T00:39:13;47.13;;;8.37;;
19509;SDS011;9896;42.486;26.506;2023-04-25T00:41:38;12.37;;;7.67;;
19509;SDS011;9896;42.486;26.506;2023-04-25T00:44:03;8.87;;;7.17;;
19509;SDS011;9896;42.486;26.506;2023-04-25T00:46:29;7.70;;;5.87;;
19509;SDS011;9896;42.486;26.506;2023-04-25T00:48:56;9.73;;;6.53;;
19509;SDS011;9896;42.486;26.506;2023-04-25T00:51:21;9.53;;;5.80;;
19509;SDS011;9896;42.486;26.506;2023-04-25T00:53:47;13.20;;;5.97;;
19509;SDS011;9896;42.486;26.506;2023-04-25T00:56:14;13.60;;;6.50;;
19509;SDS011;9896;42.486;26.506;2023-04-25T00:58:40;8.23;;;5.87;;
19509;SDS011;9896;42.486;26.506;2023-04-25T01:01:07;16.70;;;7.67;;
19509;SDS011;9896;42.486;26.506;2023-04-25T01:03:33;8.93;;;5.30;;
19509;SDS011;9896;42.486;26.506;2023-04-25T01:06:01;9.17;;;6.40;;
19509;SDS011;9896;42.486;26.506;2023-04-25T01:08:26;40.80;;;7.93;;
19509;SDS011;9896;42.486;26.506;2023-04-25T01:10:52;12.10;;;7.07;;
19509;SDS011;9896;42.486;26.506;2023-04-25T01:13:17;10.93;;;6.70;;
19509;SDS011;9896;42.486;26.506;2023-04-25T01:15:42;9.07;;;7.03;;
19509;SDS011;9896;42.486;26.506;2023-04-25T01:18:08;12.53;;;7.10;;
19509;SDS011;9896;42.486;26.506;2023-04-25T01:20:34;9.30;;;7.07;;
19509;SDS011;9896;42.486;26.506;2023-04-25T01:23:00;10.63;;;6.87;;
19509;SDS011;9896;42.486;26.506;2023-04-25T01:25:28;13.93;;;7.50;;
19509;SDS011;9896;42.486;26.506;2023-04-25T01:27:54;10.50;;;6.27;;
19509;SDS011;9896;42.486;26.506;2023-04-25T01:30:19;15.63;;;6.90;;
19509;SDS011;9896;42.486;26.506;2023-04-25T01:32:44;13.03;;;7.07;;
19509;SDS011;9896;42.486;26.506;2023-04-25T01:35:11;14.90;;;7.07;;
19509;SDS011;9896;42.486;26.506;2023-04-25T01:37:42;13.10;;;7.33;;
19509;SDS011;9896;42.486;26.506;2023-04-25T01:40:08;13.80;;;7.33;;
19509;SDS011;9896;42.486;26.506;2023-04-25T01:42:35;9.40;;;6.63;;
19509;SDS011;9896;42.486;26.506;2023-04-25T01:45:00;9.83;;;6.30;;
19509;SDS011;9896;42.486;26.506;2023-04-25T01:47:26;9.90;;;6.50;;
19509;SDS011;9896;42.486;26.506;2023-04-25T01:49:51;11.10;;;6.57;;
19509;SDS011;9896;42.486;26.506;2023-04-25T01:52:16;10.33;;;5.97;;
19509;SDS011;9896;42.486;26.506;2023-04-25T01:54:41;13.23;;;6.67;;
19509;SDS011;9896;42.486;26.506;2023-04-25T01:57:12;9.83;;;6.50;;
19509;SDS011;9896;42.486;26.506;2023-04-25T01:59:38;13.30;;;6.93;;
19509;SDS011;9896;42.486;26.506;2023-04-25T02:02:03;11.53;;;7.00;;
19509;SDS011;9896;42.486;26.506;2023-04-25T02:04:32;11.83;;;7.10;;
19509;SDS011;9896;42.486;26.506;2023-04-25T02:06:57;14.57;;;7.53;;
19509;SDS011;9896;42.486;26.506;2023-04-25T02:09:22;10.70;;;6.83;;
19509;SDS011;9896;42.486;26.506;2023-04-25T02:11:48;10.10;;;7.00;;
19509;SDS011;9896;42.486;26.506;2023-04-25T02:14:13;10.87;;;7.17;;
19509;SDS011;9896;42.486;26.506;2023-04-25T02:16:39;16.83;;;7.40;;
19509;SDS011;9896;42.486;26.506;2023-04-25T02:19:04;12.77;;;7.00;;
19509;SDS011;9896;42.486;26.506;2023-04-25T02:21:30;11.23;;;7.07;;
19509;SDS011;9896;42.486;26.506;2023-04-25T02:23:55;10.53;;;7.30;;
19509;SDS011;9896;42.486;26.506;2023-04-25T02:26:21;18.00;;;7.97;;
19509;SDS011;9896;42.486;26.506;2023-04-25T02:28:46;12.10;;;7.00;;
19509;SDS011;9896;42.486;26.506;2023-04-25T02:31:11;11.83;;;7.70;;
19509;SDS011;9896;42.486;26.506;2023-04-25T02:33:36;18.23;;;8.40;;
19509;SDS011;9896;42.486;26.506;2023-04-25T02:36:02;12.27;;;8.43;;
19509;SDS011;9896;42.486;26.506;2023-04-25T02:38:28;13.30;;;8.63;;
19509;SDS011;9896;42.486;26.506;2023-04-25T02:40:53;17.27;;;8.93;;
19509;SDS011;9896;42.486;26.506;2023-04-25T02:43:18;12.23;;;8.30;;
19509;SDS011;9896;42.486;26.506;2023-04-25T02:45:44;15.70;;;9.27;;
19509;SDS011;9896;42.486;26.506;2023-04-25T02:48:09;14.73;;;9.17;;
19509;SDS011;9896;42.486;26.506;2023-04-25T02:50:34;13.33;;;9.10;;
19509;SDS011;9896;42.486;26.506;2023-04-25T02:53:00;19.77;;;9.67;;
19509;SDS011;9896;42.486;26.506;2023-04-25T02:55:25;14.20;;;8.73;;
19509;SDS011;9896;42.486;26.506;2023-04-25T02:57:51;18.07;;;9.53;;
19509;SDS011;9896;42.486;26.506;2023-04-25T03:00:16;19.73;;;9.97;;
19509;SDS011;9896;42.486;26.506;2023-04-25T03:02:41;19.20;;;9.53;;
19509;SDS011;9896;42.486;26.506;2023-04-25T03:05:07;16.90;;;9.20;;
19509;SDS011;9896;42.486;26.506;2023-04-25T03:07:32;17.17;;;8.30;;
19509;SDS011;9896;42.486;26.506;2023-04-25T03:09:57;21.70;;;9.37;;
19509;SDS011;9896;42.486;26.506;2023-04-25T03:12:23;14.67;;;9.10;;
19509;SDS011;9896;42.486;26.506;2023-04-25T03:14:48;15.97;;;9.43;;
19509;SDS011;9896;42.486;26.506;2023-04-25T03:17:13;13.23;;;8.97;;
19509;SDS011;9896;42.486;26.506;2023-04-25T03:19:38;14.50;;;8.67;;
19509;SDS011;9896;42.486;26.506;2023-04-25T03:22:04;17.10;;;9.03;;
19509;SDS011;9896;42.486;26.506;2023-04-25T03:24:29;13.20;;;8.20;;
19509;SDS011;9896;42.486;26.506;2023-04-25T03:26:55;13.40;;;8.17;;
19509;SDS011;9896;42.486;26.506;2023-04-25T03:29:20;12.83;;;7.60;;
19509;SDS011;9896;42.486;26.506;2023-04-25T03:31:49;14.17;;;7.83;;
19509;SDS011;9896;42.486;26.506;2023-04-25T03:34:14;15.90;;;7.30;;
19509;SDS011;9896;42.486;26.506;2023-04-25T03:36:40;11.77;;;7.43;;
19509;SDS011;9896;42.486;26.506;2023-04-25T03:39:05;9.47;;;6.53;;
19509;SDS011;9896;42.486;26.506;2023-04-25T03:41:31;10.80;;;6.23;;
19509;SDS011;9896;42.486;26.506;2023-04-25T03:43:56;15.70;;;7.27;;
19509;SDS011;9896;42.486;26.506;2023-04-25T03:46:21;15.30;;;7.83;;
19509;SDS011;9896;42.486;26.506;2023-04-25T03:48:47;12.67;;;7.63;;
19509;SDS011;9896;42.486;26.506;2023-04-25T03:51:12;16.80;;;7.80;;
19509;SDS011;9896;42.486;26.506;2023-04-25T03:53:37;11.87;;;7.80;;
19509;SDS011;9896;42.486;26.506;2023-04-25T03:56:03;11.27;;;7.70;;
19509;SDS011;9896;42.486;26.506;2023-04-25T03:58:28;15.17;;;7.90;;
19509;SDS011;9896;42.486;26.506;2023-04-25T04:00:53;13.50;;;7.53;;
19509;SDS011;9896;42.486;26.506;2023-04-25T04:03:19;12.33;;;7.27;;
19509;SDS011;9896;42.486;26.506;2023-04-25T04:05:45;15.50;;;8.07;;
19509;SDS011;9896;42.486;26.506;2023-04-25T04:08:11;13.80;;;7.13;;
19509;SDS011;9896;42.486;26.506;2023-04-25T04:10:36;13.43;;;8.03;;
19509;SDS011;9896;42.486;26.506;2023-04-25T04:13:01;13.17;;;7.83;;
19509;SDS011;9896;42.486;26.506;2023-04-25T04:15:27;14.20;;;8.00;;
19509;SDS011;9896;42.486;26.506;2023-04-25T04:17:52;11.00;;;7.37;;
19509;SDS011;9896;42.486;26.506;2023-04-25T04:20:19;15.97;;;7.67;;
19509;SDS011;9896;42.486;26.506;2023-04-25T04:22:44;14.90;;;7.27;;
19509;SDS011;9896;42.486;26.506;2023-04-25T04:25:09;14.27;;;7.80;;
19509;SDS011;9896;42.486;26.506;2023-04-25T04:27:36;13.87;;;7.73;;
19509;SDS011;9896;42.486;26.506;2023-04-25T04:30:02;11.03;;;6.90;;
19509;SDS011;9896;42.486;26.506;2023-04-25T04:32:28;11.67;;;7.20;;
19509;SDS011;9896;42.486;26.506;2023-04-25T04:34:55;15.03;;;7.10;;
19509;SDS011;9896;42.486;26.506;2023-04-25T04:37:20;11.97;;;7.53;;
19509;SDS011;9896;42.486;26.506;2023-04-25T04:39:46;11.93;;;8.10;;
19509;SDS011;9896;42.486;26.506;2023-04-25T04:42:12;13.53;;;7.90;;
19509;SDS011;9896;42.486;26.506;2023-04-25T04:44:37;10.53;;;7.63;;
19509;SDS011;9896;42.486;26.506;2023-04-25T04:47:04;11.50;;;7.33;;
19509;SDS011;9896;42.486;26.506;2023-04-25T04:49:31;15.70;;;8.57;;
19509;SDS011;9896;42.486;26.506;2023-04-25T04:51:56;15.63;;;7.93;;
19509;SDS011;9896;42.486;26.506;2023-04-25T04:54:22;17.47;;;7.63;;
19509;SDS011;9896;42.486;26.506;2023-04-25T04:56:47;16.10;;;8.03;;
19509;SDS011;9896;42.486;26.506;2023-04-25T04:59:12;14.40;;;7.83;;
19509;SDS011;9896;42.486;26.506;2023-04-25T05:01:37;11.97;;;7.30;;
19509;SDS011;9896;42.486;26.506;2023-04-25T05:04:03;10.63;;;6.80;;
19509;SDS011;9896;42.486;26.506;2023-04-25T05:06:28;15.17;;;7.90;;
19509;SDS011;9896;42.486;26.506;2023-04-25T05:08:54;10.97;;;7.90;;
19509;SDS011;9896;42.486;26.506;2023-04-25T05:11:21;11.97;;;7.73;;
19509;SDS011;9896;42.486;26.506;2023-04-25T05:13:46;18.33;;;8.13;;
19509;SDS011;9896;42.486;26.506;2023-04-25T05:16:12;17.70;;;8.53;;
19509;SDS011;9896;42.486;26.506;2023-04-25T05:18:38;13.63;;;8.60;;
19509;SDS011;9896;42.486;26.506;2023-04-25T05:21:04;19.63;;;8.80;;
19509;SDS011;9896;42.486;26.506;2023-04-25T05:23:29;14.93;;;8.13;;
19509;SDS011;9896;42.486;26.506;2023-04-25T05:25:55;13.67;;;7.87;;
19509;SDS011;9896;42.486;26.506;2023-04-25T05:28:20;12.83;;;8.47;;
19509;SDS011;9896;42.486;26.506;2023-04-25T05:30:46;13.43;;;9.37;;
19509;SDS011;9896;42.486;26.506;2023-04-25T05:33:11;20.63;;;11.37;;
19509;SDS011;9896;42.486;26.506;2023-04-25T05:35:36;20.93;;;12.03;;
19509;SDS011;9896;42.486;26.506;2023-04-25T05:38:02;18.00;;;11.10;;
19509;SDS011;9896;42.486;26.506;2023-04-25T05:40:27;16.40;;;10.27;;
19509;SDS011;9896;42.486;26.506;2023-04-25T05:42:52;28.97;;;17.20;;
19509;SDS011;9896;42.486;26.506;2023-04-25T05:45:17;26.67;;;17.53;;
19509;SDS011;9896;42.486;26.506;2023-04-25T05:47:43;15.93;;;9.97;;
19509;SDS011;9896;42.486;26.506;2023-04-25T05:50:08;18.70;;;10.80;;
19509;SDS011;9896;42.486;26.506;2023-04-25T05:52:33;22.40;;;10.60;;
19509;SDS011;9896;42.486;26.506;2023-04-25T05:54:59;18.00;;;10.27;;
19509;SDS011;9896;42.486;26.506;2023-04-25T05:57:25;16.97;;;11.10;;
19509;SDS011;9896;42.486;26.506;2023-04-25T05:59:51;17.17;;;10.77;;
19509;SDS011;9896;42.486;26.506;2023-04-25T06:02:18;18.20;;;11.53;;
19509;SDS011;9896;42.486;26.506;2023-04-25T06:04:43;20.27;;;11.90;;
19509;SDS011;9896;42.486;26.506;2023-04-25T06:07:09;16.27;;;11.80;;
19509;SDS011;9896;42.486;26.506;2023-04-25T06:09:34;18.47;;;11.20;;
19509;SDS011;9896;42.486;26.506;2023-04-25T06:11:59;18.43;;;11.80;;
19509;SDS011;9896;42.486;26.506;2023-04-25T06:14:26;24.73;;;14.23;;
19509;SDS011;9896;42.486;26.506;2023-04-25T06:16:51;21.23;;;13.70;;
19509;SDS011;9896;42.486;26.506;2023-04-25T06:19:16;23.83;;;13.27;;
19509;SDS011;9896;42.486;26.506;2023-04-25T06:21:42;21.27;;;11.30;;
19509;SDS011;9896;42.486;26.506;2023-04-25T06:24:08;23.67;;;12.07;;
19509;SDS011;9896;42.486;26.506;2023-04-25T06:26:33;19.50;;;11.43;;
19509;SDS011;9896;42.486;26.506;2023-04-25T06:28:58;16.13;;;11.53;;
19509;SDS011;9896;42.486;26.506;2023-04-25T06:31:24;14.73;;;10.77;;
19509;SDS011;9896;42.486;26.506;2023-04-25T06:33:50;16.63;;;11.23;;
19509;SDS011;9896;42.486;26.506;2023-04-25T06:36:15;20.67;;;10.27;;
19509;SDS011;9896;42.486;26.506;2023-04-25T06:38:40;18.23;;;11.30;;
19509;SDS011;9896;42.486;26.506;2023-04-25T06:41:06;19.83;;;11.43;;
19509;SDS011;9896;42.486;26.506;2023-04-25T06:43:31;19.53;;;10.87;;
19509;SDS011;9896;42.486;26.506;2023-04-25T06:45:59;15.43;;;10.40;;
19509;SDS011;9896;42.486;26.506;2023-04-25T06:48:25;16.60;;;11.33;;
19509;SDS011;9896;42.486;26.506;2023-04-25T06:50:50;16.67;;;10.87;;
19509;SDS011;9896;42.486;26.506;2023-04-25T06:53:15;18.87;;;11.03;;
19509;SDS011;9896;42.486;26.506;2023-04-25T06:55:40;14.93;;;9.73;;
19509;SDS011;9896;42.486;26.506;2023-04-25T06:58:06;14.60;;;9.23;;
19509;SDS011;9896;42.486;26.506;2023-04-25T07:00:32;18.63;;;9.83;;
19509;SDS011;9896;42.486;26.506;2023-04-25T07:02:58;15.47;;;9.23;;
19509;SDS011;9896;42.486;26.506;2023-04-25T07:05:23;16.53;;;10.17;;
19509;SDS011;9896;42.486;26.506;2023-04-25T07:07:49;15.20;;;9.67;;
19509;SDS011;9896;42.486;26.506;2023-04-25T07:10:14;12.57;;;9.60;;
19509;SDS011;9896;42.486;26.506;2023-04-25T07:12:40;14.83;;;9.33;;
19509;SDS011;9896;42.486;26.506;2023-04-25T07:15:05;13.50;;;9.27;;
19509;SDS011;9896;42.486;26.506;2023-04-25T07:17:33;14.57;;;9.57;;
19509;SDS011;9896;42.486;26.506;2023-04-25T07:19:58;12.00;;;8.93;;
19509;SDS011;9896;42.486;26.506;2023-04-25T07:22:24;15.57;;;10.13;;
19509;SDS011;9896;42.486;26.506;2023-04-25T07:24:51;15.73;;;10.83;;
19509;SDS011;9896;42.486;26.506;2023-04-25T07:27:19;14.80;;;10.07;;
19509;SDS011;9896;42.486;26.506;2023-04-25T07:29:44;14.53;;;9.93;;
19509;SDS011;9896;42.486;26.506;2023-04-25T07:32:09;13.60;;;10.17;;
19509;SDS011;9896;42.486;26.506;2023-04-25T07:34:37;13.70;;;10.10;;
19509;SDS011;9896;42.486;26.506;2023-04-25T07:37:03;15.50;;;9.63;;
19509;SDS011;9896;42.486;26.506;2023-04-25T07:39:29;17.27;;;9.33;;
19509;SDS011;9896;42.486;26.506;2023-04-25T07:41:54;15.43;;;9.30;;
19509;SDS011;9896;42.486;26.506;2023-04-25T07:44:20;17.03;;;9.53;;
19509;SDS011;9896;42.486;26.506;2023-04-25T07:46:45;13.50;;;10.13;;
19509;SDS011;9896;42.486;26.506;2023-04-25T07:49:10;17.90;;;10.37;;
19509;SDS011;9896;42.486;26.506;2023-04-25T07:51:36;13.63;;;9.40;;
19509;SDS011;9896;42.486;26.506;2023-04-25T07:54:01;14.83;;;9.27;;
19509;SDS011;9896;42.486;26.506;2023-04-25T07:56:27;12.90;;;9.10;;
19509;SDS011;9896;42.486;26.506;2023-04-25T07:58:53;12.97;;;9.77;;
19509;SDS011;9896;42.486;26.506;2023-04-25T08:01:18;19.40;;;14.90;;
19509;SDS011;9896;42.486;26.506;2023-04-25T08:03:45;15.00;;;10.27;;
19509;SDS011;9896;42.486;26.506;2023-04-25T08:06:11;11.97;;;9.03;;
19509;SDS011;9896;42.486;26.506;2023-04-25T08:08:36;11.47;;;8.60;;
19509;SDS011;9896;42.486;26.506;2023-04-25T08:11:01;11.20;;;7.80;;
19509;SDS011;9896;42.486;26.506;2023-04-25T08:13:27;11.83;;;7.93;;
19509;SDS011;9896;42.486;26.506;2023-04-25T08:15:52;11.90;;;8.67;;
19509;SDS011;9896;42.486;26.506;2023-04-25T08:18:17;13.00;;;8.20;;
19509;SDS011;9896;42.486;26.506;2023-04-25T08:20:42;11.63;;;7.70;;
19509;SDS011;9896;42.486;26.506;2023-04-25T08:23:08;9.73;;;7.60;;
19509;SDS011;9896;42.486;26.506;2023-04-25T08:25:33;9.57;;;7.10;;
19509;SDS011;9896;42.486;26.506;2023-04-25T08:27:58;8.10;;;7.20;;
19509;SDS011;9896;42.486;26.506;2023-04-25T08:30:24;9.83;;;7.40;;
19509;SDS011;9896;42.486;26.506;2023-04-25T08:32:49;11.73;;;7.53;;
19509;SDS011;9896;42.486;26.506;2023-04-25T08:35:15;11.37;;;7.43;;
19509;SDS011;9896;42.486;26.506;2023-04-25T08:37:42;8.43;;;7.50;;
19509;SDS011;9896;42.486;26.506;2023-04-25T08:40:07;11.87;;;7.57;;
19509;SDS011;9896;42.486;26.506;2023-04-25T08:42:36;11.97;;;7.23;;
19509;SDS011;9896;42.486;26.506;2023-04-25T08:45:02;12.40;;;7.50;;
19509;SDS011;9896;42.486;26.506;2023-04-25T08:47:31;15.60;;;8.17;;
19509;SDS011;9896;42.486;26.506;2023-04-25T08:49:57;10.90;;;9.60;;
19509;SDS011;9896;42.486;26.506;2023-04-25T08:52:24;12.43;;;7.67;;
19509;SDS011;9896;42.486;26.506;2023-04-25T08:54:51;12.37;;;7.43;;
19509;SDS011;9896;42.486;26.506;2023-04-25T08:57:17;11.13;;;7.50;;
19509;SDS011;9896;42.486;26.506;2023-04-25T08:59:43;101.47;;;15.13;;
19509;SDS011;9896;42.486;26.506;2023-04-25T09:02:11;11.57;;;7.43;;
19509;SDS011;9896;42.486;26.506;2023-04-25T09:04:39;16.50;;;10.10;;
19509;SDS011;9896;42.486;26.506;2023-04-25T09:07:05;333.03;;;31.60;;
19509;SDS011;9896;42.486;26.506;2023-04-25T09:09:30;14.30;;;9.70;;
19509;SDS011;9896;42.486;26.506;2023-04-25T09:11:56;40.83;;;13.47;;
19509;SDS011;9896;42.486;26.506;2023-04-25T09:14:22;9.50;;;8.37;;
19509;SDS011;9896;42.486;26.506;2023-04-25T09:16:58;13.57;;;8.53;;
19509;SDS011;9896;42.486;26.506;2023-04-25T09:21:55;14.33;;;9.97;;
19509;SDS011;9896;42.486;26.506;2023-04-25T09:26:56;10.10;;;8.40;;
19509;SDS011;9896;42.486;26.506;2023-04-25T09:29:28;9.40;;;7.30;;
19509;SDS011;9896;42.486;26.506;2023-04-25T09:31:54;8.97;;;7.43;;
19509;SDS011;9896;42.486;26.506;2023-04-25T09:34:45;10.57;;;7.50;;
19509;SDS011;9896;42.486;26.506;2023-04-25T09:37:13;10.33;;;8.10;;
19509;SDS011;9896;42.486;26.506;2023-04-25T09:39:42;12.80;;;8.00;;
19509;SDS011;9896;42.486;26.506;2023-04-25T09:42:09;11.87;;;9.07;;
19509;SDS011;9896;42.486;26.506;2023-04-25T09:44:35;65.90;;;17.00;;
19509;SDS011;9896;42.486;26.506;2023-04-25T09:47:00;10.83;;;9.73;;
19509;SDS011;9896;42.486;26.506;2023-04-25T09:49:28;12.70;;;8.63;;
19509;SDS011;9896;42.486;26.506;2023-04-25T09:51:54;13.37;;;9.70;;
19509;SDS011;9896;42.486;26.506;2023-04-25T09:54:20;19.83;;;11.03;;
19509;SDS011;9896;42.486;26.506;2023-04-25T09:56:45;95.60;;;19.20;;
19509;SDS011;9896;42.486;26.506;2023-04-25T09:59:12;9.33;;;6.83;;
19509;SDS011;9896;42.486;26.506;2023-04-25T10:01:38;11.37;;;7.17;;
19509;SDS011;9896;42.486;26.506;2023-04-25T10:04:05;7.63;;;6.90;;
19509;SDS011;9896;42.486;26.506;2023-04-25T10:06:31;10.70;;;9.20;;
19509;SDS011;9896;42.486;26.506;2023-04-25T10:08:58;5.77;;;5.17;;
19509;SDS011;9896;42.486;26.506;2023-04-25T10:11:24;6.77;;;3.97;;
19509;SDS011;9896;42.486;26.506;2023-04-25T10:13:50;6.57;;;4.70;;
19509;SDS011;9896;42.486;26.506;2023-04-25T10:16:15;5.87;;;4.90;;
19509;SDS011;9896;42.486;26.506;2023-04-25T10:18:41;5.20;;;4.70;;
19509;SDS011;9896;42.486;26.506;2023-04-25T10:21:06;141.03;;;15.63;;
19509;SDS011;9896;42.486;26.506;2023-04-25T10:23:32;7.87;;;5.10;;
19509;SDS011;9896;42.486;26.506;2023-04-25T10:26:00;191.03;;;13.03;;
19509;SDS011;9896;42.486;26.506;2023-04-25T10:28:26;7.50;;;5.70;;
19509;SDS011;9896;42.486;26.506;2023-04-25T10:33:29;8.10;;;6.20;;
19509;SDS011;9896;42.486;26.506;2023-04-25T10:35:54;7.67;;;6.23;;
19509;SDS011;9896;42.486;26.506;2023-04-25T10:38:22;6.10;;;5.10;;
19509;SDS011;9896;42.486;26.506;2023-04-25T10:41:04;6.50;;;5.23;;
19509;SDS011;9896;42.486;26.506;2023-04-25T10:46:01;11.90;;;6.27;;
19509;SDS011;9896;42.486;26.506;2023-04-25T10:48:27;8.63;;;4.67;;
19509;SDS011;9896;42.486;26.506;2023-04-25T10:51:08;5.87;;;5.27;;
19509;SDS011;9896;42.486;26.506;2023-04-25T10:53:34;5.43;;;4.90;;
19509;SDS011;9896;42.486;26.506;2023-04-25T10:55:59;6.00;;;5.40;;
19509;SDS011;9896;42.486;26.506;2023-04-25T10:58:25;5.70;;;4.70;;
19509;SDS011;9896;42.486;26.506;2023-04-25T11:00:51;8.80;;;5.47;;
19509;SDS011;9896;42.486;26.506;2023-04-25T11:03:16;5.37;;;4.83;;
19509;SDS011;9896;42.486;26.506;2023-04-25T11:05:41;7.00;;;5.80;;
19509;SDS011;9896;42.486;26.506;2023-04-25T11:08:12;7.63;;;5.23;;
19509;SDS011;9896;42.486;26.506;2023-04-25T11:10:39;8.73;;;5.10;;
19509;SDS011;9896;42.486;26.506;2023-04-25T11:13:05;10.17;;;8.20;;
19509;SDS011;9896;42.486;26.506;2023-04-25T11:15:30;8.00;;;5.70;;
19509;SDS011;9896;42.486;26.506;2023-04-25T11:17:55;13.10;;;12.00;;
19509;SDS011;9896;42.486;26.506;2023-04-25T11:20:21;5.73;;;4.90;;
19509;SDS011;9896;42.486;26.506;2023-04-25T11:22:47;6.17;;;5.53;;
19509;SDS011;9896;42.486;26.506;2023-04-25T11:25:13;3.67;;;3.33;;
19509;SDS011;9896;42.486;26.506;2023-04-25T11:30:15;6.43;;;3.87;;
19509;SDS011;9896;42.486;26.506;2023-04-25T11:32:41;58.13;;;8.67;;
19509;SDS011;9896;42.486;26.506;2023-04-25T11:35:07;4.00;;;3.63;;
19509;SDS011;9896;42.486;26.506;2023-04-25T11:37:32;3.83;;;3.50;;
19509;SDS011;9896;42.486;26.506;2023-04-25T11:39:59;4.53;;;3.50;;
19509;SDS011;9896;42.486;26.506;2023-04-25T11:42:24;6.10;;;3.40;;
19509;SDS011;9896;42.486;26.506;2023-04-25T11:44:50;4.80;;;3.43;;
19509;SDS011;9896;42.486;26.506;2023-04-25T11:47:16;3.80;;;3.50;;
19509;SDS011;9896;42.486;26.506;2023-04-25T11:49:41;4.90;;;4.17;;
19509;SDS011;9896;42.486;26.506;2023-04-25T11:52:06;5.73;;;3.33;;
19509;SDS011;9896;42.486;26.506;2023-04-25T11:54:34;4.20;;;3.37;;
19509;SDS011;9896;42.486;26.506;2023-04-25T11:56:59;4.30;;;3.10;;
19509;SDS011;9896;42.486;26.506;2023-04-25T11:59:26;6.67;;;3.60;;
19509;SDS011;9896;42.486;26.506;2023-04-25T12:01:52;7.67;;;6.73;;
19509;SDS011;9896;42.486;26.506;2023-04-25T12:04:21;4.93;;;3.70;;
19509;SDS011;9896;42.486;26.506;2023-04-25T12:06:47;8.20;;;3.90;;
19509;SDS011;9896;42.486;26.506;2023-04-25T12:09:13;10.60;;;3.30;;
19509;SDS011;9896;42.486;26.506;2023-04-25T12:11:44;3.50;;;3.20;;
19509;SDS011;9896;42.486;26.506;2023-04-25T12:14:10;3.63;;;3.00;;
19509;SDS011;9896;42.486;26.506;2023-04-25T12:19:07;3.80;;;3.40;;
19509;SDS011;9896;42.486;26.506;2023-04-25T12:21:32;4.23;;;3.10;;
19509;SDS011;9896;42.486;26.506;2023-04-25T12:24:11;3.50;;;3.20;;
19509;SDS011;9896;42.486;26.506;2023-04-25T12:29:19;4.90;;;3.40;;
19509;SDS011;9896;42.486;26.506;2023-04-25T12:31:44;6.07;;;3.73;;
19509;SDS011;9896;42.486;26.506;2023-04-25T12:34:10;3.57;;;3.27;;
19509;SDS011;9896;42.486;26.506;2023-04-25T12:36:35;3.70;;;3.33;;
19509;SDS011;9896;42.486;26.506;2023-04-25T12:39:01;6.30;;;3.87;;
19509;SDS011;9896;42.486;26.506;2023-04-25T12:41:29;4.63;;;2.80;;
19509;SDS011;9896;42.486;26.506;2023-04-25T12:43:54;4.07;;;3.50;;
19509;SDS011;9896;42.486;26.506;2023-04-25T12:46:20;3.33;;;3.03;;
19509;SDS011;9896;42.486;26.506;2023-04-25T12:48:45;3.93;;;3.27;;
19509;SDS011;9896;42.486;26.506;2023-04-25T12:51:11;14.10;;;9.23;;
19509;SDS011;9896;42.486;26.506;2023-04-25T12:53:36;5.50;;;3.30;;
19509;SDS011;9896;42.486;26.506;2023-04-25T12:56:03;48.50;;;5.57;;
19509;SDS011;9896;42.486;26.506;2023-04-25T12:58:29;6.97;;;3.50;;
19509;SDS011;9896;42.486;26.506;2023-04-25T13:00:54;5.57;;;4.60;;
19509;SDS011;9896;42.486;26.506;2023-04-25T13:03:19;3.70;;;3.33;;
19509;SDS011;9896;42.486;26.506;2023-04-25T13:05:45;4.33;;;3.80;;
19509;SDS011;9896;42.486;26.506;2023-04-25T13:08:10;114.07;;;9.97;;
19509;SDS011;9896;42.486;26.506;2023-04-25T13:10:36;6.60;;;5.10;;
19509;SDS011;9896;42.486;26.506;2023-04-25T13:13:03;3.97;;;3.00;;
19509;SDS011;9896;42.486;26.506;2023-04-25T13:15:28;3.50;;;3.20;;
19509;SDS011;9896;42.486;26.506;2023-04-25T13:17:53;4.60;;;3.73;;
19509;SDS011;9896;42.486;26.506;2023-04-25T13:20:19;3.90;;;3.60;;
19509;SDS011;9896;42.486;26.506;2023-04-25T13:22:47;6.13;;;4.47;;
19509;SDS011;9896;42.486;26.506;2023-04-25T13:25:12;3.73;;;3.37;;
19509;SDS011;9896;42.486;26.506;2023-04-25T13:27:37;3.77;;;3.37;;
19509;SDS011;9896;42.486;26.506;2023-04-25T13:30:05;7.90;;;3.23;;
19509;SDS011;9896;42.486;26.506;2023-04-25T13:32:34;5.53;;;3.40;;
19509;SDS011;9896;42.486;26.506;2023-04-25T13:35:01;3.73;;;3.30;;
19509;SDS011;9896;42.486;26.506;2023-04-25T13:37:27;4.83;;;3.27;;
19509;SDS011;9896;42.486;26.506;2023-04-25T13:39:52;19.50;;;4.10;;
19509;SDS011;9896;42.486;26.506;2023-04-25T13:42:20;27.23;;;3.80;;
19509;SDS011;9896;42.486;26.506;2023-04-25T13:44:46;14.00;;;3.83;;
19509;SDS011;9896;42.486;26.506;2023-04-25T13:47:11;48.70;;;4.80;;
19509;SDS011;9896;42.486;26.506;2023-04-25T13:49:36;3.77;;;3.20;;
19509;SDS011;9896;42.486;26.506;2023-04-25T13:52:02;6.07;;;3.97;;
19509;SDS011;9896;42.486;26.506;2023-04-25T13:54:27;4.53;;;4.00;;
19509;SDS011;9896;42.486;26.506;2023-04-25T13:56:52;150.07;;;9.37;;
19509;SDS011;9896;42.486;26.506;2023-04-25T13:59:20;5.70;;;4.17;;
19509;SDS011;9896;42.486;26.506;2023-04-25T14:01:45;4.80;;;3.60;;
19509;SDS011;9896;42.486;26.506;2023-04-25T14:04:11;8.03;;;3.90;;
19509;SDS011;9896;42.486;26.506;2023-04-25T14:06:36;4.53;;;4.13;;
19509;SDS011;9896;42.486;26.506;2023-04-25T14:09:01;4.57;;;3.80;;
19509;SDS011;9896;42.486;26.506;2023-04-25T14:11:29;6.37;;;4.43;;
19509;SDS011;9896;42.486;26.506;2023-04-25T14:13:54;4.93;;;3.83;;
19509;SDS011;9896;42.486;26.506;2023-04-25T14:16:19;4.83;;;4.17;;
19509;SDS011;9896;42.486;26.506;2023-04-25T14:18:45;5.00;;;3.83;;
19509;SDS011;9896;42.486;26.506;2023-04-25T14:21:10;6.20;;;3.70;;
19509;SDS011;9896;42.486;26.506;2023-04-25T14:23:35;5.73;;;3.80;;
19509;SDS011;9896;42.486;26.506;2023-04-25T14:26:01;5.33;;;4.50;;
19509;SDS011;9896;42.486;26.506;2023-04-25T14:28:27;7.30;;;4.03;;
19509;SDS011;9896;42.486;26.506;2023-04-25T14:30:52;7.57;;;5.20;;
19509;SDS011;9896;42.486;26.506;2023-04-25T14:33:17;7.67;;;4.10;;
19509;SDS011;9896;42.486;26.506;2023-04-25T14:35:43;7.87;;;3.83;;
19509;SDS011;9896;42.486;26.506;2023-04-25T14:38:08;6.17;;;4.37;;
19509;SDS011;9896;42.486;26.506;2023-04-25T14:40:33;6.70;;;4.50;;
19509;SDS011;9896;42.486;26.506;2023-04-25T14:42:58;6.90;;;4.20;;
19509;SDS011;9896;42.486;26.506;2023-04-25T14:45:24;6.30;;;4.57;;